Weather History for Frankfort, MI

Change the Weather History Date:

Tuesday, May 14, 2013

  Actual Average (KTVC) Record (KTVC)
Temperature  
Mean Temperature 54 °F 53 °F  
Max Temperature 67 °F 65 °F 88 °F (1900)
Min Temperature 41 °F 41 °F 26 °F (1973)
Degree Days  
Heating Degree Days 11 12  
Month to date heating degree days 203  
Since 1 July heating degree days 7270  
Cooling Degree Days 0 0  
Month to date cooling degree days 0  
Year to date cooling degree days 3  
Growing Degree Days 4 (Base 50)    
Moisture  
Dew Point 38 °F    
Average Humidity 57    
Maximum Humidity 76    
Minimum Humidity 40    
Precipitation  
Precipitation 0.00 in 0.09 in 1.35 in (1957)
Month to date precipitation 1.16  
Year to date precipitation 10.12  
Sea Level Pressure  
Sea Level Pressure 29.79 in    
Wind  
Wind Speed 7 mph (South)    
Max Wind Speed 15 mph    
Max Gust Speed 23 mph    
Visibility 10 miles    
Events Rain    
T = Trace of Precipitation, MM = Missing Value Source: NWS Daily Summary

Daily Weather History Graph

Daily Weather History Graph

Search for Another Location

Airport:

Trip Planner

Search our weather history database for the weather conditions in past years. The results will help you decide how hot, cold, wet, or windy it might be!

Date:

Astronomy

May. 14, 2013 Rise Set
Actual Time 6:17 AM EDT 9:05 PM EDT
Civil Twilight 5:43 AM EDT 9:39 PM EDT
Nautical Twilight 5:01 AM EDT 10:22 PM EDT
Astronomical Twilight 4:11 AM EDT 11:12 PM EDT
Moon 9:57 AM EDT (5/14) 12:13 AM EDT (5/14)
Length of Visible Light 15h 55m
Length of Day
14h 47m
Waxing Crescent, 19% of the Moon is Illuminated
May 14
Waxing Crescent
May 18
First Quarter
May 25
Full
May 31
Last Quarter
Jun 8
New

Hourly Weather History & Observations

Time (EDT) Temp. Windchill Dew Point Humidity Pressure Visibility Wind Dir Wind Speed Gust Speed Precip Events Conditions
12:15 AM 41.2 °F 38.2 °F 31.3 °F 68% 30.04 in 10.0 mi South 4.6 mph - N/A   Overcast
12:35 AM 41.5 °F 39.6 °F 30.2 °F 64% 30.02 in 10.0 mi South 3.5 mph - N/A   Overcast
12:55 AM 42.1 °F - 29.3 °F 61% 30.02 in 10.0 mi Calm Calm - N/A   Overcast
1:15 AM 42.8 °F 39.3 °F 30.2 °F 61% 30.01 in 10.0 mi SSE 5.8 mph - N/A Rain Light Rain
1:35 AM 41.4 °F 36.8 °F 32.4 °F 70% 30.00 in 10.0 mi East 6.9 mph - N/A Rain Light Rain
1:55 AM 41.2 °F 38.2 °F 34.2 °F 76% 29.99 in 10.0 mi ESE 4.6 mph - N/A Rain Light Rain
2:15 AM 41.5 °F 36.4 °F 34.2 °F 75% 29.96 in 10.0 mi SE 8.1 mph - N/A   Light Drizzle
2:36 AM 41.9 °F 35.9 °F 34.0 °F 73% 29.94 in 10.0 mi ESE 10.4 mph - N/A   Overcast
2:56 AM 42.1 °F 35.7 °F 32.2 °F 68% 29.93 in 10.0 mi SE 11.5 mph - N/A   Overcast
3:16 AM 42.4 °F 36.1 °F 32.0 °F 67% 29.91 in 10.0 mi SE 11.5 mph - N/A   Overcast
3:36 AM 43.2 °F 37.9 °F 32.0 °F 65% 29.90 in 10.0 mi SE 9.2 mph - N/A   Overcast
3:56 AM 43.0 °F 38.8 °F 32.2 °F 66% 29.88 in 10.0 mi SE 6.9 mph - N/A   Overcast
4:16 AM 43.2 °F 38.4 °F 32.0 °F 65% 29.88 in 10.0 mi SE 8.1 mph - N/A   Overcast
4:36 AM 44.1 °F 38.6 °F 32.0 °F 63% 29.88 in 10.0 mi SE 10.4 mph - N/A   Overcast
4:56 AM 44.8 °F 39.9 °F 32.0 °F 61% 29.86 in 10.0 mi SSE 9.2 mph 18.4 mph N/A   Light Drizzle
5:16 AM 45.0 °F 38.5 °F 31.6 °F 60% 29.85 in 10.0 mi SSE 13.8 mph 19.6 mph N/A   Scattered Clouds
5:36 AM 45.5 °F 40.3 °F 31.6 °F 58% 29.84 in 10.0 mi SE 10.4 mph 18.4 mph N/A   Mostly Cloudy
5:57 AM 45.7 °F 41.5 °F 31.3 °F 57% 29.85 in 10.0 mi SE 8.1 mph - N/A   Mostly Cloudy
6:17 AM 46.0 °F 40.2 °F 31.1 °F 56% 29.82 in 10.0 mi SE 12.7 mph - N/A   Scattered Clouds
6:32 AM 46.4 °F 40.7 °F 30.9 °F 55% 29.82 in 10.0 mi SE 12.7 mph 18.4 mph N/A   Scattered Clouds
6:52 AM 47.5 °F - 30.2 °F 51% 29.83 in 10.0 mi SE 9.2 mph - N/A   Scattered Clouds
7:12 AM 48.2 °F - 30.2 °F 50% 29.81 in 10.0 mi SE 11.5 mph - N/A   Clear
7:32 AM 49.1 °F - 30.0 °F 48% 29.80 in 10.0 mi SE 6.9 mph - N/A   Clear
7:52 AM 49.3 °F - 30.4 °F 48% 29.80 in 10.0 mi SE 6.9 mph - N/A   Clear
8:12 AM 50.5 °F - 30.7 °F 47% 29.79 in 10.0 mi SE 8.1 mph - N/A   Clear
8:32 AM 52.2 °F - 31.5 °F 45% 29.78 in 10.0 mi SE 8.1 mph - N/A   Clear
8:53 AM 54.1 °F - 32.0 °F 43% 29.78 in 10.0 mi SE 9.2 mph - N/A   Clear
9:13 AM 55.8 °F - 32.7 °F 42% 29.78 in 10.0 mi SE 10.4 mph 16.1 mph N/A   Clear
9:33 AM 57.4 °F - 33.8 °F 41% 29.78 in 10.0 mi SSE 9.2 mph 16.1 mph N/A   Clear
9:53 AM 59.2 °F - 35.4 °F 41% 29.77 in 10.0 mi South 9.2 mph - N/A   Clear
10:13 AM 61.0 °F - 36.5 °F 40% 29.75 in 10.0 mi South 12.7 mph 23.0 mph N/A   Clear
10:33 AM 61.7 °F - 37.0 °F 40% 29.74 in 10.0 mi SSW 12.7 mph 23.0 mph N/A   Clear
10:53 AM 63.0 °F - 38.5 °F 40% 29.75 in 10.0 mi SSW 9.2 mph 18.4 mph N/A   Clear
11:13 AM 62.8 °F - 38.5 °F 41% 29.75 in 10.0 mi SW 11.5 mph 19.6 mph N/A   Clear
11:33 AM 61.7 °F - 39.4 °F 44% 29.78 in 10.0 mi SSW 15.0 mph 21.9 mph N/A   Clear
11:54 AM 59.2 °F - 39.7 °F 49% 29.78 in 10.0 mi SW 12.7 mph 19.6 mph N/A   Clear
12:14 PM 60.3 °F - 41.0 °F 49% 29.77 in 10.0 mi SSW 12.7 mph 18.4 mph N/A   Clear
12:34 PM 59.5 °F - 41.2 °F 51% 29.78 in 10.0 mi SW 13.8 mph 21.9 mph N/A   Clear
12:54 PM 57.6 °F - 41.0 °F 54% 29.78 in 10.0 mi SW 11.5 mph 16.1 mph N/A   Clear
1:14 PM 56.5 °F - 41.0 °F 56% 29.76 in 10.0 mi SSW 8.1 mph - N/A   Clear
1:34 PM 56.5 °F - 41.4 °F 57% 29.78 in 10.0 mi SW 6.9 mph - N/A   Clear
1:54 PM 55.9 °F - 41.7 °F 59% 29.78 in 10.0 mi West 5.8 mph - N/A   Clear
2:14 PM 54.1 °F - 40.8 °F 61% 29.81 in 10.0 mi West 8.1 mph 16.1 mph N/A   Clear
2:34 PM 52.2 °F - 40.6 °F 65% 29.79 in 10.0 mi WSW 6.9 mph - N/A   Clear
2:54 PM 51.1 °F - 40.8 °F 68% 29.80 in 10.0 mi WSW 6.9 mph - N/A   Clear
3:14 PM 53.8 °F - 41.2 °F 62% 29.79 in 10.0 mi WSW 5.8 mph - N/A   Clear
3:35 PM 54.5 °F - 41.5 °F 62% 29.79 in 10.0 mi West 5.8 mph - N/A   Clear
3:55 PM 55.9 °F - 41.5 °F 58% 29.78 in 10.0 mi WNW 3.5 mph - N/A   Clear
4:15 PM 56.1 °F - 42.1 °F 59% 29.78 in 10.0 mi West 5.8 mph - N/A   Clear
4:35 PM 55.6 °F - 42.1 °F 60% 29.76 in 10.0 mi Calm Calm - N/A   Clear
4:55 PM 57.0 °F - 42.6 °F 59% 29.78 in 10.0 mi West 5.8 mph - N/A   Clear
5:15 PM 57.4 °F - 42.8 °F 58% 29.75 in 10.0 mi Calm Calm - N/A   Clear
5:35 PM 60.3 °F - 43.9 °F 55% 29.73 in 10.0 mi Calm Calm - N/A   Clear
5:55 PM 63.9 °F - 44.8 °F 50% 29.72 in 10.0 mi SSE 4.6 mph - N/A   Clear
6:15 PM 65.3 °F - 45.9 °F 49% 29.72 in 10.0 mi South 4.6 mph - N/A   Clear
6:36 PM 64.8 °F - 46.2 °F 51% 29.71 in 10.0 mi Calm Calm - N/A   Clear
6:56 PM 66.2 °F - 46.6 °F 49% 29.68 in 10.0 mi SSE 6.9 mph - N/A   Clear
7:16 PM 66.7 °F - 46.9 °F 49% 29.67 in 10.0 mi SSE 5.8 mph - N/A   Clear
7:36 PM 66.7 °F - 47.7 °F 50% 29.64 in 10.0 mi ESE 3.5 mph - N/A   Clear
7:56 PM 67.1 °F - 47.7 °F 50% 29.64 in 10.0 mi SE 4.6 mph - N/A   Clear
8:16 PM 66.2 °F - 49.1 °F 54% 29.63 in 10.0 mi Calm Calm - N/A   Clear
8:36 PM 64.8 °F - 49.5 °F 58% 29.65 in 10.0 mi West 3.5 mph - N/A   Clear
8:56 PM 58.3 °F - 45.1 °F 62% 29.67 in 10.0 mi WSW 4.6 mph - N/A   Clear
9:16 PM 55.4 °F - 44.2 °F 66% 29.66 in 10.0 mi Calm Calm - N/A   Clear
9:37 PM 55.6 °F - 45.3 °F 68% 29.66 in 10.0 mi Calm Calm - N/A   Clear
9:57 PM 58.5 °F - 45.9 °F 63% 29.65 in 10.0 mi Calm Calm - N/A   Clear
10:17 PM 54.5 °F - 45.9 °F 73% 29.64 in 10.0 mi Calm Calm - N/A   Scattered Clouds
10:37 PM 54.9 °F - 47.1 °F 75% 29.63 in 10.0 mi Calm Calm - N/A   Scattered Clouds
10:52 PM 54.7 °F - 47.3 °F 76% 29.62 in 10.0 mi SE 3.5 mph - N/A   Scattered Clouds
11:12 PM 59.2 °F - 48.4 °F 67% 29.60 in 10.0 mi SSE 6.9 mph - N/A   Clear
11:32 PM 61.9 °F - 48.7 °F 62% 29.58 in 10.0 mi SSE 8.1 mph - N/A   Clear